Terminal Aerodrome Forecast
Issued by NWS Billings, MT

Home | Current Version | Previous Version | Text Only | Print | Product List | Glossary On
Versions: 1 2 3 4 5 6 7 8 9 10 11 12 13 14 15 16 17 18 19 20 21 22 23 24 25 26 27 28 29 30 31 32 33 34 35 36
000
FTUS45 KBYZ 081738
TAFBIL
TAF
KBIL 081738Z 0818/0918 VRB05KT P6SM FEW060
     FM090300 04008KT P6SM BKN050
     FM090900 10007KT P6SM SCT010 BKN030
     FM091500 14007KT P6SM VCSH SCT008 OVC030=

USA.gov is the U.S. government's official web portal to all federal, state and local government web resources and services.